Time;durP1;ratioP1;P1;durP2;ratioP2;P2;SDS_P1;SDS_P2;PMS_P1;PMS_P2;Temp;Humidity;BMP_temperature;BMP_pressure;BME280_temperature;BME280_humidity;BME280_pressure;Samples;Min_cycle;Max_cycle;Signal;HPM_P1;HPM_P2
2021/04/02 00:00:59;;;;;;;17.52;14.58;;;;;;;18.30;46.48;98796.88;1740476;81;21193;-68
2021/04/02 00:03:33;;;;;;;18.40;15.80;;;;;;;18.28;46.48;98793.08;1727991;81;21580;-68
2021/04/02 00:06:05;;;;;;;19.92;15.28;;;;;;;18.27;46.50;98779.38;1741419;81;21582;-68
2021/04/02 00:08:33;;;;;;;17.50;15.60;;;;;;;18.27;46.63;98775.84;1747255;80;21124;-69
2021/04/02 00:11:09;;;;;;;19.37;15.08;;;;;;;18.26;46.71;98769.66;1750601;81;21172;-68
2021/04/02 00:13:44;;;;;;;18.80;15.53;;;;;;;18.26;46.76;98769.66;1738113;81;21214;-69
2021/04/02 00:16:14;;;;;;;15.88;14.20;;;;;;;18.26;46.71;98765.63;1702443;83;21610;-69
2021/04/02 00:18:41;;;;;;;17.12;15.35;;;;;;;18.26;46.60;98772.34;1747280;81;21232;-68
2021/04/02 00:21:13;;;;;;;16.32;14.47;;;;;;;18.27;46.53;98761.89;1746277;80;21242;-68
2021/04/02 00:23:40;;;;;;;16.62;14.00;;;;;;;18.26;46.50;98758.91;1735249;81;21198;-67
2021/04/02 00:26:09;;;;;;;20.25;14.07;;;;;;;18.26;46.43;98758.91;1739946;81;22220;-68
2021/04/02 00:28:36;;;;;;;17.45;13.65;;;;;;;18.27;46.39;98743.08;1740291;81;21180;-67
2021/04/02 00:31:04;;;;;;;17.42;13.25;;;;;;;18.27;46.40;98739.55;1693085;84;22401;-67
2021/04/02 00:33:32;;;;;;;15.75;13.32;;;;;;;18.26;46.49;98719.92;1753625;81;21111;-67
2021/04/02 00:36:00;;;;;;;14.78;12.47;;;;;;;18.26;46.51;98718.58;1744591;81;21517;-67
2021/04/02 00:38:30;;;;;;;16.23;13.85;;;;;;;18.26;46.45;98707.83;1690042;84;21172;-68
2021/04/02 00:41:07;;;;;;;16.95;13.40;;;;;;;18.27;46.40;98717.54;1742774;81;21167;-68
2021/04/02 00:43:38;;;;;;;16.73;12.93;;;;;;;18.27;46.31;98704.61;1753045;81;21450;-68
2021/04/02 00:46:07;;;;;;;18.37;12.07;;;;;;;18.27;46.37;98741.73;1738776;81;21226;-67
2021/04/02 00:48:40;;;;;;;14.33;12.55;;;;;;;18.26;46.24;98725.30;1749796;81;21159;-67
2021/04/02 00:51:26;;;;;;;13.90;11.88;;;;;;;18.24;46.25;98722.05;1736514;81;28773;-67
2021/04/02 00:53:54;;;;;;;13.78;12.33;;;;;;;18.23;46.27;98723.13;1765769;80;21123;-68
2021/04/02 00:56:22;;;;;;;15.00;11.40;;;;;;;18.22;46.29;98729.54;1749003;81;21376;-67
2021/04/02 00:58:50;;;;;;;14.70;11.65;;;;;;;18.19;46.18;98723.30;1739908;81;21120;-67
2021/04/02 01:01:17;;;;;;;15.70;11.63;;;;;;;18.20;46.18;98722.25;1739622;81;21155;-67
2021/04/02 01:03:47;;;;;;;16.50;11.18;;;;;;;18.20;46.15;98702.63;1736325;81;21162;-68
2021/04/02 01:06:23;;;;;;;15.75;12.55;;;;;;;18.19;45.99;98702.33;1749552;81;21123;-68
2021/04/02 01:08:52;;;;;;;16.27;11.80;;;;;;;18.18;45.99;98684.05;1737989;81;21196;-68
2021/04/02 01:11:22;;;;;;;17.82;12.58;;;;;;;18.16;46.05;98687.51;1690552;84;21180;-68
2021/04/02 01:13:56;;;;;;;15.15;12.53;;;;;;;18.17;46.05;98682.41;1738254;81;21576;-67
2021/04/02 01:16:32;;;;;;;14.65;11.30;;;;;;;18.16;46.04;98673.27;1751573;81;21098;-67
2021/04/02 01:19:16;;;;;;;13.43;11.93;;;;;;;18.16;45.98;98669.23;1748200;81;21175;-69
2021/04/02 01:22:06;;;;;;;15.78;12.30;;;;;;;18.16;45.91;98674.61;1737881;81;23657;-69
2021/04/02 01:25:01;;;;;;;18.12;14.47;;;;;;;18.15;45.88;98675.66;1737166;81;21223;-68
2021/04/02 01:27:40;;;;;;;14.10;11.83;;;;;;;18.12;45.80;98701.16;1743028;81;21158;-68
2021/04/02 01:30:13;;;;;;;14.05;11.95;;;;;;;18.09;45.67;98685.50;1714484;82;21195;-68
2021/04/02 01:32:45;;;;;;;15.67;12.90;;;;;;;18.08;45.55;98689.27;1751452;81;21201;-66
2021/04/02 01:35:37;;;;;;;16.73;12.65;;;;;;;18.06;45.50;98672.56;1685734;84;21373;-67
2021/04/02 01:38:16;;;;;;;17.75;13.20;;;;;;;18.05;45.41;98685.70;1732529;81;21596;-67
2021/04/02 01:40:50;;;;;;;20.43;13.68;;;;;;;18.03;45.26;98664.98;1730858;81;21176;-67
2021/04/02 01:43:29;;;;;;;16.55;13.83;;;;;;;18.00;45.23;98678.38;1743540;81;21587;-67
2021/04/02 01:45:57;;;;;;;18.70;14.07;;;;;;;17.98;45.16;98657.66;1757668;81;21175;-67
2021/04/02 01:48:25;;;;;;;17.60;13.80;;;;;;;17.96;45.16;98661.09;1738244;81;21575;-67
2021/04/02 01:50:54;;;;;;;20.00;14.40;;;;;;;17.95;45.16;98663.50;1735183;81;21234;-68
2021/04/02 01:53:25;;;;;;;14.90;13.18;;;;;;;17.94;45.18;98665.08;1736761;81;21463;-67
2021/04/02 01:55:53;;;;;;;16.02;13.43;;;;;;;17.93;45.17;98662.13;1751333;81;21159;-67
2021/04/02 01:58:22;;;;;;;17.37;13.40;;;;;;;17.91;45.16;98655.64;1728065;81;21223;-68
2021/04/02 02:00:55;;;;;;;17.67;13.05;;;;;;;17.91;45.09;98654.84;1743930;81;21348;-67
2021/04/02 02:03:28;;;;;;;17.30;13.58;;;;;;;17.90;45.13;98651.84;1741288;81;21195;-67
2021/04/02 02:05:57;;;;;;;13.93;12.05;;;;;;;17.90;45.17;98651.84;1746954;81;21123;-67
2021/04/02 02:08:34;;;;;;;17.07;13.08;;;;;;;17.87;45.24;98652.63;1740882;81;21672;-67
2021/04/02 02:11:17;;;;;;;16.65;13.18;;;;;;;17.87;45.24;98654.50;1679902;83;21204;-68
2021/04/02 02:14:00;;;;;;;15.55;12.60;;;;;;;17.85;45.30;98648.02;1745318;81;21387;-67
2021/04/02 02:16:29;;;;;;;15.93;12.68;;;;;;;17.85;45.35;98642.65;1748624;81;21592;-66
2021/04/02 02:18:59;;;;;;;18.27;13.25;;;;;;;17.82;45.31;98637.72;1742915;81;21195;-67
2021/04/02 02:21:27;;;;;;;18.35;12.47;;;;;;;17.81;45.32;98644.16;1735988;81;21155;-67
2021/04/02 02:23:56;;;;;;;17.07;12.43;;;;;;;17.81;45.33;98645.51;1744272;79;21203;-67
2021/04/02 02:26:26;;;;;;;14.85;12.37;;;;;;;17.81;45.19;98638.79;1734558;81;21191;-67
2021/04/02 02:28:57;;;;;;;18.07;12.60;;;;;;;17.82;45.13;98651.15;1730601;81;21191;-68
2021/04/02 02:31:26;;;;;;;12.55;11.25;;;;;;;17.81;45.11;98642.81;1743149;81;21194;-67
2021/04/02 02:33:54;;;;;;;14.47;12.18;;;;;;;17.81;45.05;98638.79;1739511;81;21151;-68
2021/04/02 02:36:27;;;;;;;15.40;12.05;;;;;;;17.80;45.10;98631.77;1696901;84;21591;-68
2021/04/02 02:38:59;;;;;;;14.65;11.88;;;;;;;17.79;45.06;98624.79;1685986;84;21643;-66
2021/04/02 02:41:28;;;;;;;15.23;12.25;;;;;;;17.79;45.16;98633.35;1750105;81;21761;-68
2021/04/02 02:43:58;;;;;;;13.25;11.03;;;;;;;17.77;45.10;98632.78;1762604;80;21648;-68
2021/04/02 02:46:28;;;;;;;11.85;10.55;;;;;;;17.77;45.14;98634.96;1704251;83;21152;-67
2021/04/02 02:49:06;;;;;;;16.15;11.83;;;;;;;17.77;45.10;98630.09;1746930;81;21182;-67
2021/04/02 02:51:42;;;;;;;14.85;11.05;;;;;;;17.81;45.17;98639.30;1753371;79;28196;-68
2021/04/02 02:54:17;;;;;;;15.05;11.00;;;;;;;17.76;45.16;98649.44;1738040;82;21159;-68
2021/04/02 02:56:48;;;;;;;14.53;11.68;;;;;;;17.76;45.21;98653.47;1710602;82;21364;-67
2021/04/02 02:59:20;;;;;;;16.48;11.88;;;;;;;17.75;45.22;98643.80;1741181;81;21167;-67
2021/04/02 03:01:49;;;;;;;15.18;12.43;;;;;;;17.75;45.16;98646.98;1734627;81;21633;-68
2021/04/02 03:04:19;;;;;;;12.53;10.93;;;;;;;17.75;45.21;98650.51;1741237;79;21625;-67
2021/04/02 03:06:50;;;;;;;16.05;12.00;;;;;;;17.75;45.13;98649.16;1787726;79;21016;-68
2021/04/02 03:09:18;;;;;;;13.25;11.57;;;;;;;17.74;45.15;98648.86;1777811;79;21194;-69
2021/04/02 03:11:48;;;;;;;15.08;11.43;;;;;;;17.74;45.13;98641.34;1801153;79;21238;-68
2021/04/02 03:14:20;;;;;;;14.93;11.00;;;;;;;17.73;45.10;98641.88;1790525;77;21138;-68
2021/04/02 03:16:50;;;;;;;15.90;11.90;;;;;;;17.74;45.09;98654.23;1789347;77;21586;-69
2021/04/02 03:19:21;;;;;;;14.45;12.13;;;;;;;17.73;45.06;98652.63;1784154;79;21420;-69
2021/04/02 03:21:53;;;;;;;13.85;11.25;;;;;;;17.72;45.08;98649.64;1794716;77;21184;-69
2021/04/02 03:24:22;;;;;;;14.28;11.95;;;;;;;17.73;45.12;98643.73;1762641;79;21190;-69
2021/04/02 03:26:53;;;;;;;16.17;12.40;;;;;;;17.73;45.12;98643.73;1784467;79;21170;-67
2021/04/02 03:29:24;;;;;;;17.30;12.65;;;;;;;17.72;45.04;98640.23;1780371;79;21094;-68
2021/04/02 03:31:59;;;;;;;13.45;11.55;;;;;;;17.71;45.04;98639.93;1783221;79;21170;-68
2021/04/02 03:34:28;;;;;;;14.87;11.33;;;;;;;17.70;45.01;98641.00;1747027;80;21681;-68
2021/04/02 03:36:55;;;;;;;13.58;10.98;;;;;;;17.71;45.01;98650.67;1788451;79;21162;-69
2021/04/02 03:39:29;;;;;;;15.15;12.63;;;;;;;17.70;45.00;98649.06;1796051;79;21645;-69
2021/04/02 03:42:00;;;;;;;15.48;12.63;;;;;;;17.70;45.01;98653.09;1790717;79;21137;-67
2021/04/02 03:44:32;;;;;;;14.15;11.85;;;;;;;17.69;45.02;98651.45;1787607;79;21122;-68
2021/04/02 03:47:03;;;;;;;16.62;12.45;;;;;;;17.69;45.02;98656.31;1777786;79;21373;-67
2021/04/02 03:49:35;;;;;;;15.68;12.28;;;;;;;17.68;45.03;98658.70;1795426;79;21298;-67
2021/04/02 03:52:06;;;;;;;15.35;12.30;;;;;;;17.69;45.00;98659.00;1778425;79;21165;-68
2021/04/02 03:54:36;;;;;;;17.23;12.63;;;;;;;17.68;45.03;98651.17;1793801;79;21141;-66
2021/04/02 03:57:08;;;;;;;15.40;12.00;;;;;;;17.67;45.08;98650.88;1789145;79;21136;-68
2021/04/02 03:59:37;;;;;;;15.95;12.23;;;;;;;17.66;45.01;98645.23;1779831;79;22409;-68
2021/04/02 04:02:06;;;;;;;15.72;12.88;;;;;;;17.65;45.00;98647.62;1777962;78;21224;-67
2021/04/02 04:04:33;;;;;;;15.20;12.45;;;;;;;17.65;45.01;98642.25;1793275;79;21158;-68
2021/04/02 04:07:04;;;;;;;13.60;12.18;;;;;;;17.64;44.98;98637.41;1760924;78;21156;-68
2021/04/02 04:09:35;;;;;;;15.00;12.45;;;;;;;17.65;44.98;98628.81;1778495;78;21648;-68
2021/04/02 04:12:07;;;;;;;17.77;13.32;;;;;;;17.65;44.94;98623.45;1794055;78;21660;-67
2021/04/02 04:14:39;;;;;;;17.32;14.03;;;;;;;17.64;44.97;98617.27;1720082;80;21224;-68
2021/04/02 04:17:11;;;;;;;18.85;13.48;;;;;;;17.63;44.96;98612.13;1749174;81;22041;-67
2021/04/02 04:19:42;;;;;;;18.70;14.58;;;;;;;17.63;44.95;98612.94;1718597;81;21153;-68
2021/04/02 04:22:12;;;;;;;15.20;12.88;;;;;;;17.62;44.97;98619.38;1742295;80;21178;-67
2021/04/02 04:24:41;;;;;;;17.48;13.85;;;;;;;17.63;44.96;98626.91;1741395;81;21401;-67
2021/04/02 04:27:08;;;;;;;17.67;14.13;;;;;;;17.62;44.98;98623.41;1766053;79;21149;-67
2021/04/02 04:29:44;;;;;;;18.35;13.48;;;;;;;17.62;44.98;98617.23;1782569;78;21156;-68
2021/04/02 04:32:17;;;;;;;17.12;13.03;;;;;;;17.61;44.97;98612.37;1774342;79;21224;-68
2021/04/02 04:34:48;;;;;;;16.05;13.70;;;;;;;17.61;44.99;98607.00;1782565;79;21624;-66
2021/04/02 04:37:19;;;;;;;17.10;13.22;;;;;;;17.60;45.01;98604.58;1781204;79;22267;-67
2021/04/02 04:39:48;;;;;;;15.95;12.50;;;;;;;17.59;44.99;98605.08;1779117;79;21147;-68
2021/04/02 04:42:18;;;;;;;16.95;13.80;;;;;;;17.59;45.06;98602.94;1790981;79;21130;-69
2021/04/02 04:44:48;;;;;;;20.32;14.13;;;;;;;17.59;45.06;98602.40;1785982;78;21111;-70
2021/04/02 04:47:16;;;;;;;16.75;13.50;;;;;;;17.59;45.06;98598.91;1794643;78;21171;-68
2021/04/02 04:49:44;;;;;;;17.50;14.15;;;;;;;17.59;45.08;98601.05;1754692;81;21438;-68
2021/04/02 04:52:15;;;;;;;17.77;13.98;;;;;;;17.59;45.08;98602.94;1743846;81;21728;-70
2021/04/02 04:54:43;;;;;;;17.92;13.95;;;;;;;17.59;45.06;98605.62;1737631;81;21163;-68
2021/04/02 04:57:10;;;;;;;16.73;13.98;;;;;;;17.59;45.08;98612.33;1752167;81;21193;-68
2021/04/02 04:59:38;;;;;;;22.60;14.85;;;;;;;17.57;45.07;98619.28;1748416;81;21139;-68
2021/04/02 05:02:05;;;;;;;19.50;14.03;;;;;;;17.57;45.05;98619.28;1743728;81;21389;-66
2021/04/02 05:04:33;;;;;;;18.10;14.13;;;;;;;17.57;45.03;98621.16;1749972;81;21180;-66
2021/04/02 05:07:01;;;;;;;17.67;13.62;;;;;;;17.57;45.00;98636.73;1750820;80;21174;-67
2021/04/02 05:09:28;;;;;;;15.88;13.03;;;;;;;17.57;44.99;98638.61;1742854;81;21594;-68
2021/04/02 05:11:58;;;;;;;17.62;13.83;;;;;;;17.57;45.03;98634.05;1757691;80;21245;-68
2021/04/02 05:14:25;;;;;;;16.65;12.30;;;;;;;17.56;45.08;98632.94;1757596;81;21378;-69
2021/04/02 05:16:53;;;;;;;16.48;13.20;;;;;;;17.57;45.06;98630.56;1745433;81;21138;-69
2021/04/02 05:19:20;;;;;;;18.62;14.20;;;;;;;17.56;45.06;98632.94;1750233;81;21140;-68
2021/04/02 05:21:48;;;;;;;16.30;13.30;;;;;;;17.55;45.08;98629.98;1755540;81;21142;-68
2021/04/02 05:24:15;;;;;;;18.62;14.90;;;;;;;17.54;45.07;98621.63;1747624;79;21559;-68
2021/04/02 05:26:43;;;;;;;17.20;14.60;;;;;;;17.54;45.16;98614.91;1756344;81;21370;-69
2021/04/02 05:29:10;;;;;;;17.42;13.35;;;;;;;17.53;45.24;98609.27;1753459;81;21203;-68
2021/04/02 05:31:38;;;;;;;19.92;14.45;;;;;;;17.53;45.21;98616.80;1728967;81;21091;-69
2021/04/02 05:34:07;;;;;;;18.62;13.80;;;;;;;17.53;45.24;98620.02;1758626;81;21214;-68
2021/04/02 05:36:34;;;;;;;15.40;13.55;;;;;;;17.52;45.29;98619.71;1756028;79;21170;-68
2021/04/02 05:39:01;;;;;;;16.60;13.48;;;;;;;17.52;45.36;98614.34;1739750;81;21194;-68
2021/04/02 05:41:46;;;;;;;17.82;13.80;;;;;;;17.51;45.52;98600.65;1743218;81;21146;-68
2021/04/02 05:44:17;;;;;;;20.45;14.43;;;;;;;17.50;45.68;98590.45;1737201;81;21187;-69
2021/04/02 05:46:45;;;;;;;16.60;12.80;;;;;;;17.49;45.87;98583.43;1742486;81;21189;-68
2021/04/02 05:49:14;;;;;;;18.45;13.45;;;;;;;17.48;46.03;98577.26;1748023;81;21654;-69
2021/04/02 05:51:42;;;;;;;19.80;13.70;;;;;;;17.46;46.20;98584.73;1738113;81;21923;-70
2021/04/02 05:54:11;;;;;;;16.15;13.10;;;;;;;17.47;46.43;98572.12;1778713;79;21525;-68
2021/04/02 05:56:39;;;;;;;18.62;13.68;;;;;;;17.46;46.58;98548.50;1754551;79;21170;-70
2021/04/02 05:59:06;;;;;;;15.95;13.40;;;;;;;17.47;46.74;98543.93;1799940;79;21183;-69
2021/04/02 06:01:33;;;;;;;18.73;13.43;;;;;;;17.46;46.99;98556.55;1767646;79;21638;-71
2021/04/02 06:04:00;;;;;;;16.90;13.58;;;;;;;17.47;47.19;98562.72;1782276;79;21207;-69
2021/04/02 06:06:28;;;;;;;15.88;12.30;;;;;;;17.47;47.38;98568.09;1770015;79;21204;-70
2021/04/02 06:08:55;;;;;;;17.50;13.83;;;;;;;17.47;47.55;98560.84;1769670;79;21127;-71
2021/04/02 06:11:22;;;;;;;15.35;12.93;;;;;;;17.49;47.72;98556.58;1773149;79;21166;-70
2021/04/02 06:13:50;;;;;;;12.73;10.93;;;;;;;17.50;50.01;98554.20;1773688;79;21194;-70
2021/04/02 06:16:18;;;;;;;11.00;8.85;;;;;;;17.56;49.85;98569.84;1776097;79;21201;-68
2021/04/02 06:18:45;;;;;;;12.30;9.58;;;;;;;17.62;50.96;98570.23;1782453;79;21142;-69
2021/04/02 06:21:13;;;;;;;10.35;8.65;;;;;;;17.68;51.75;98575.98;1786780;78;21127;-67
2021/04/02 06:23:41;;;;;;;10.85;9.20;;;;;;;17.74;51.91;98575.53;1779350;78;21230;-68
2021/04/02 06:26:10;;;;;;;12.60;9.25;;;;;;;17.78;51.90;98573.45;1785143;79;21614;-67
2021/04/02 06:28:39;;;;;;;11.85;8.75;;;;;;;17.83;51.79;98573.55;1787903;79;21358;-69
2021/04/02 06:31:11;;;;;;;10.82;9.08;;;;;;;17.88;51.62;98562.89;1774659;79;21177;-68
2021/04/02 06:33:42;;;;;;;12.43;9.90;;;;;;;17.93;51.47;98565.41;1778987;79;21150;-68
2021/04/02 06:36:16;;;;;;;9.73;8.28;;;;;;;17.96;51.31;98578.33;1780829;79;21215;-68
2021/04/02 06:38:49;;;;;;;11.33;9.45;;;;;;;17.99;51.12;98579.20;1769972;79;21242;-67
2021/04/02 06:41:18;;;;;;;10.35;8.50;;;;;;;18.03;51.07;98596.45;1773721;79;21358;-68
2021/04/02 06:43:48;;;;;;;9.90;8.60;;;;;;;18.05;50.92;98605.08;1779074;79;22078;-66
2021/04/02 06:46:25;;;;;;;10.48;8.23;;;;;;;18.08;50.69;98617.51;1772291;79;21137;-66
2021/04/02 06:48:53;;;;;;;10.13;8.23;;;;;;;18.10;50.56;98619.12;1773243;79;21190;-68
2021/04/02 06:51:23;;;;;;;10.60;8.73;;;;;;;18.12;50.50;98629.93;1731245;81;21157;-69
2021/04/02 06:56:29;;;;;;;11.15;9.05;;;;;;;18.19;50.30;98631.91;1800613;78;28655;-69
2021/04/02 06:58:58;;;;;;;9.83;8.25;;;;;;;18.17;50.19;98636.71;1804667;79;21616;-68
2021/04/02 07:01:28;;;;;;;8.73;7.83;;;;;;;18.19;50.11;98641.84;1752662;80;21311;-69
2021/04/02 07:03:55;;;;;;;10.08;8.13;;;;;;;18.20;50.13;98642.15;1763953;80;20997;-68
2021/04/02 07:06:22;;;;;;;9.23;8.00;;;;;;;18.20;50.09;98648.33;1752861;80;21171;-68
2021/04/02 07:08:52;;;;;;;13.43;9.25;;;;;;;18.21;50.03;98651.28;1796433;79;21202;-69
2021/04/02 07:11:19;;;;;;;10.30;8.68;;;;;;;18.23;50.02;98651.89;1804769;79;21028;-69
2021/04/02 07:13:52;;;;;;;9.53;8.15;;;;;;;18.23;50.01;98653.23;1759400;81;22184;-67
2021/04/02 07:16:23;;;;;;;10.13;8.15;;;;;;;18.25;49.94;98659.17;1775682;80;21233;-69
2021/04/02 07:18:51;;;;;;;11.03;8.98;;;;;;;18.26;49.86;98661.33;1779007;80;21108;-68
2021/04/02 07:21:18;;;;;;;8.80;7.90;;;;;;;18.26;49.91;98657.30;1752871;80;21165;-69
2021/04/02 07:23:46;;;;;;;11.05;8.83;;;;;;;18.26;49.89;98668.85;1764518;80;21126;-70
2021/04/02 07:26:13;;;;;;;11.38;8.70;;;;;;;18.27;49.86;98672.34;1792489;78;21387;-68
2021/04/02 07:28:45;;;;;;;8.13;7.33;;;;;;;18.28;49.91;98674.80;1776537;80;21250;-68
2021/04/02 07:31:13;;;;;;;9.43;7.92;;;;;;;18.28;49.98;98684.20;1767715;80;21215;-67
2021/04/02 07:33:44;;;;;;;8.80;7.90;;;;;;;18.29;49.91;98685.02;1763290;79;21167;-66
2021/04/02 07:36:13;;;;;;;9.00;8.05;;;;;;;18.30;49.92;98689.88;1776261;79;21216;-67
2021/04/02 07:38:47;;;;;;;8.93;7.67;;;;;;;18.30;49.82;98696.06;1768822;80;21191;-67
2021/04/02 07:41:17;;;;;;;10.28;8.28;;;;;;;18.31;49.80;98699.56;1741415;80;21226;-71
2021/04/02 07:43:54;;;;;;;8.93;7.55;;;;;;;18.30;49.95;98700.09;1789754;79;21643;-70
2021/04/02 07:46:28;;;;;;;9.68;7.45;;;;;;;18.30;49.83;98703.33;1796428;79;21611;-67
2021/04/02 07:49:08;;;;;;;9.65;7.75;;;;;;;18.29;49.76;98713.23;1812741;79;21120;-67
2021/04/02 07:51:46;;;;;;;8.45;7.20;;;;;;;18.29;49.78;98721.30;1778800;79;22227;-67
2021/04/02 07:55:30;;;;;;;8.20;7.12;;;;;;;18.33;49.78;98718.95;1825129;75;22577;-68
2021/04/02 07:58:04;;;;;;;9.20;7.58;;;;;;;18.25;49.86;98718.31;1795052;79;21644;-65
2021/04/02 08:00:33;;;;;;;7.33;6.62;;;;;;;18.26;49.76;98716.43;1792458;77;22345;-69
2021/04/02 08:03:15;;;;;;;8.05;7.15;;;;;;;18.26;49.78;98715.89;1794819;78;21135;-67
2021/04/02 08:05:59;;;;;;;8.13;6.83;;;;;;;18.26;49.75;98719.92;1796739;77;21164;-66
2021/04/02 08:08:29;;;;;;;8.58;6.72;;;;;;;18.26;49.78;98723.16;1791166;77;21189;-67
2021/04/02 08:11:34;;;;;;;9.53;7.05;;;;;;;18.24;49.69;98727.42;1794311;76;21174;-68
2021/04/02 08:14:09;;;;;;;;;;;;;;;18.24;49.78;98729.30;1786643;77;21373;-69
2021/04/02 08:16:54;;;;;;;7.25;6.55;;;;;;;18.22;49.71;98733.57;1790152;78;20271;-69
2021/04/02 08:19:31;;;;;;;7.50;6.70;;;;;;;18.13;49.91;98736.36;1791293;77;22180;-68
2021/04/02 08:22:08;;;;;;;8.48;6.53;;;;;;;18.13;49.83;98744.42;1790178;77;21174;-68
2021/04/02 08:24:39;;;;;;;7.20;6.17;;;;;;;18.14;49.90;98747.41;1792566;77;21190;-69
2021/04/02 08:27:07;;;;;;;7.65;6.85;;;;;;;18.13;49.89;98749.80;1792274;77;21365;-68
2021/04/02 08:29:37;;;;;;;7.15;6.15;;;;;;;18.14;49.92;98750.10;1793252;79;21126;-68
2021/04/02 08:32:09;;;;;;;7.53;6.70;;;;;;;18.15;49.84;98753.59;1790946;77;21134;-69
2021/04/02 08:34:37;;;;;;;7.95;6.42;;;;;;;18.15;49.95;98754.41;1787899;77;21197;-67
2021/04/02 08:37:08;;;;;;;7.85;6.40;;;;;;;18.16;49.92;98756.05;1795391;77;21176;-69
2021/04/02 08:39:36;;;;;;;7.28;6.28;;;;;;;18.16;49.91;98762.77;1792773;77;21907;-68
2021/04/02 08:42:07;;;;;;;7.12;6.28;;;;;;;18.15;49.78;98769.19;1784256;79;21161;-67
2021/04/02 08:44:44;;;;;;;7.35;6.42;;;;;;;18.16;49.86;98761.42;1796037;78;21209;-68
2021/04/02 08:47:17;;;;;;;6.20;5.60;;;;;;;18.17;49.84;98769.76;1796823;77;21182;-71
2021/04/02 08:49:53;;;;;;;6.97;6.08;;;;;;;18.16;49.87;98770.83;1786554;77;21233;-68
2021/04/02 08:52:26;;;;;;;6.67;5.60;;;;;;;18.16;49.82;98768.14;1765342;77;21317;-68
2021/04/02 08:55:02;;;;;;;7.20;6.28;;;;;;;18.16;49.82;98772.17;1792304;78;21125;-69
2021/04/02 08:57:31;;;;;;;6.62;5.95;;;;;;;18.16;49.83;98770.02;1795518;77;21181;-66
2021/04/02 09:00:00;;;;;;;7.92;7.12;;;;;;;18.16;49.88;98772.71;1796767;77;21173;-67
2021/04/02 09:02:29;;;;;;;6.75;6.05;;;;;;;18.16;49.83;98770.02;1803429;78;21610;-69
2021/04/02 09:04:57;;;;;;;7.17;5.78;;;;;;;18.16;49.87;98772.17;1787686;77;21354;-68
2021/04/02 09:07:24;;;;;;;6.03;5.42;;;;;;;18.16;49.86;98776.20;1782529;79;21228;-69
2021/04/02 09:09:52;;;;;;;5.45;4.90;;;;;;;18.17;49.92;98783.73;1791141;77;21630;-67
2021/04/02 09:12:23;;;;;;;6.15;5.28;;;;;;;18.17;49.84;98785.89;1784162;77;21142;-70
2021/04/02 09:14:52;;;;;;;5.80;5.20;;;;;;;18.17;49.78;98783.73;1803424;77;21135;-68
2021/04/02 09:17:25;;;;;;;5.83;5.05;;;;;;;18.16;49.82;98784.80;1777436;77;22321;-70
2021/04/02 09:19:53;;;;;;;;;;;;;;;18.16;49.76;98788.84;1797886;77;22319;-68
2021/04/02 09:22:21;;;;;;;6.87;5.30;;;;;;;18.16;49.91;98796.91;1779619;78;20238;-68
2021/04/02 09:24:49;;;;;;;5.37;4.87;;;;;;;18.07;49.93;98789.73;1787854;77;21098;-69
2021/04/02 09:27:19;;;;;;;5.87;4.80;;;;;;;18.08;49.92;98800.80;1791820;77;21165;-68
2021/04/02 09:29:56;;;;;;;5.17;4.67;;;;;;;18.08;49.93;98802.13;1789961;77;21188;-68
2021/04/02 09:32:28;;;;;;;5.20;4.70;;;;;;;18.08;49.87;98801.59;1779970;77;21229;-68
2021/04/02 09:35:04;;;;;;;5.55;4.70;;;;;;;18.09;49.93;98798.38;1808162;79;21165;-68
2021/04/02 09:37:32;;;;;;;5.22;4.72;;;;;;;18.08;49.92;98794.07;1809124;77;21166;-68
2021/04/02 09:40:08;;;;;;;5.33;4.83;;;;;;;18.08;49.92;98789.50;1767578;79;21138;-69
2021/04/02 09:42:36;;;;;;;6.95;4.92;;;;;;;18.08;49.92;98788.16;1796143;77;22109;-70
2021/04/02 09:45:10;;;;;;;6.15;5.05;;;;;;;18.10;49.84;98791.95;1784518;77;21660;-69
2021/04/02 09:47:47;;;;;;;5.65;5.05;;;;;;;18.10;49.86;98790.61;1737914;81;21179;-70
2021/04/02 09:50:16;;;;;;;4.78;4.28;;;;;;;18.11;49.88;98796.80;1739987;80;21134;-71
2021/04/02 09:52:45;;;;;;;5.22;4.72;;;;;;;18.11;49.89;98803.52;1740009;80;21185;-67
2021/04/02 09:55:13;;;;;;;6.20;5.60;;;;;;;18.10;49.93;98797.33;1751409;80;21409;-62
2021/04/02 09:57:42;;;;;;;7.60;5.87;;;;;;;18.13;52.15;98763.23;1759484;79;21181;-64
2021/04/02 10:00:12;;;;;;;20.75;9.53;;;;;;;18.18;55.60;98758.50;1730315;81;21229;-65
2021/04/02 10:02:39;;;;;;;16.55;7.58;;;;;;;18.02;95.83;98764.10;1746000;79;21642;-68
2021/04/02 10:05:08;;;;;;;9.55;6.17;;;;;;;18.16;87.04;98762.77;1744465;79;21138;-68
2021/04/02 10:07:36;;;;;;;9.48;6.05;;;;;;;18.39;77.49;98755.64;1744324;80;22767;-68
2021/04/02 10:10:06;;;;;;;10.80;6.72;;;;;;;18.51;71.98;98763.09;1768521;80;21178;-67
2021/04/02 10:12:33;;;;;;;8.93;6.00;;;;;;;18.66;67.91;98786.75;1762436;80;21190;-68
2021/04/02 10:15:06;;;;;;;8.88;6.80;;;;;;;18.87;65.65;98795.96;1759613;80;21765;-67
2021/04/02 10:17:33;;;;;;;11.35;6.83;;;;;;;19.14;64.24;98773.25;1747630;80;21178;-67
2021/04/02 10:20:03;;;;;;;10.60;5.65;;;;;;;19.40;63.10;98781.66;1746792;80;21290;-67
2021/04/02 10:22:31;;;;;;;11.55;6.65;;;;;;;19.63;62.38;98808.90;1761358;80;21137;-69
2021/04/02 10:24:59;;;;;;;8.38;5.67;;;;;;;19.80;63.21;98810.23;1764268;80;21106;-71
2021/04/02 10:27:26;;;;;;;7.58;5.90;;;;;;;19.88;63.17;98811.66;1749856;79;21578;-70
2021/04/02 10:29:54;;;;;;;8.53;5.53;;;;;;;19.90;61.37;98814.38;1744786;80;21142;-72
2021/04/02 10:32:21;;;;;;;7.87;5.78;;;;;;;19.90;60.69;98824.36;1749274;80;21185;-72
2021/04/02 10:34:49;;;;;;;9.30;6.50;;;;;;;19.88;59.48;98817.86;1744077;80;21182;-70
2021/04/02 10:37:16;;;;;;;7.03;5.70;;;;;;;19.83;58.96;98811.86;1750608;80;21592;-69
2021/04/02 10:39:44;;;;;;;7.40;5.62;;;;;;;19.79;58.42;98806.70;1756853;80;21190;-69
2021/04/02 10:42:11;;;;;;;8.43;6.47;;;;;;;19.75;57.93;98812.84;1746742;79;21189;-67
2021/04/02 10:44:39;;;;;;;9.43;6.00;;;;;;;19.70;57.62;98813.58;1744843;80;21542;-67
2021/04/02 10:47:08;;;;;;;7.55;5.67;;;;;;;19.66;57.37;98817.81;1757708;80;21102;-66
2021/04/02 10:49:36;;;;;;;6.35;5.05;;;;;;;19.60;57.31;98826.90;1753605;79;21150;-67
2021/04/02 10:52:06;;;;;;;6.10;4.90;;;;;;;19.55;57.04;98828.20;1749718;80;21247;-66
2021/04/02 10:54:35;;;;;;;6.10;4.58;;;;;;;19.50;56.60;98824.08;1752112;79;21170;-66
2021/04/02 10:57:05;;;;;;;7.08;5.85;;;;;;;19.44;56.38;98826.69;1744231;79;21391;-67
2021/04/02 10:59:33;;;;;;;6.53;4.90;;;;;;;19.37;56.05;98831.46;1751227;79;21659;-66
2021/04/02 11:02:02;;;;;;;6.97;5.03;;;;;;;19.32;55.64;98842.15;1763098;81;21166;-65
2021/04/02 11:04:29;;;;;;;6.85;4.70;;;;;;;19.25;55.19;98839.61;1761095;79;21189;-66
2021/04/02 11:06:57;;;;;;;6.65;4.75;;;;;;;19.21;54.88;98841.17;1751715;80;21170;-69
2021/04/02 11:09:26;;;;;;;6.53;4.37;;;;;;;19.16;54.72;98845.16;1754642;80;21214;-67
2021/04/02 11:11:55;;;;;;;6.35;4.83;;;;;;;19.11;54.56;98841.56;1745055;80;21546;-69
2021/04/02 11:14:23;;;;;;;7.75;5.28;;;;;;;19.06;54.44;98838.25;1744095;80;21202;-68
2021/04/02 11:16:50;;;;;;;5.83;4.47;;;;;;;19.02;54.30;98837.11;1743828;81;21174;-69
2021/04/02 11:19:17;;;;;;;8.50;5.22;;;;;;;18.98;54.20;98845.39;1754204;80;21185;-69
2021/04/02 11:21:45;;;;;;;7.65;5.17;;;;;;;18.94;54.17;98847.75;1760325;79;21456;-67
2021/04/02 11:24:12;;;;;;;5.78;4.40;;;;;;;18.91;54.12;98837.50;1785424;79;21833;-66
2021/04/02 11:26:39;;;;;;;5.00;4.50;;;;;;;18.86;54.01;98841.44;1794357;79;21578;-67
2021/04/02 11:29:07;;;;;;;5.55;4.72;;;;;;;18.84;53.89;98843.56;1783545;77;21192;-66
2021/04/02 11:31:36;;;;;;;5.17;4.62;;;;;;;18.81;53.86;98853.45;1794985;79;21205;-66
2021/04/02 11:34:03;;;;;;;5.10;4.60;;;;;;;18.79;53.75;98844.78;1782012;79;21484;-66
2021/04/02 11:36:31;;;;;;;6.97;4.45;;;;;;;18.75;53.68;98844.45;1782038;79;21138;-65
2021/04/02 11:38:59;;;;;;;6.05;4.20;;;;;;;18.73;53.60;98839.84;1794503;79;21177;-66
2021/04/02 11:41:27;;;;;;;4.75;4.12;;;;;;;18.71;53.56;98855.95;1780564;79;21147;-66
2021/04/02 11:43:54;;;;;;;4.95;3.95;;;;;;;18.69;53.51;98853.49;1785633;77;21178;-64